Corpus Christi Jet Center

SKYE FBO - AIRPORT SERVICES
McCampbell-Porter Airport KTFP
Call Us 24/7: (361) 758-2000
KTFP - McCampbell-Porter Airport
Updated: Mon, 21-Jan-2019 7:15am PST
Partly Cloudy
Partly Cloudy
 Wind from S
Wind: S 6 mph , 9 km/h
Temperature: 61°F , 16°C
Dew Point: 54°F , 12°C
Humidity: 77%
Barometer: 30.22 inHg , 1023.4 hPa
Clouds: Partly Cloudy
Visibility: 10 miles , 16 km
Cloud details: Partly Cloudy 2700 ft
2019/01/21 15:15 KTFP 211515Z AUTO 18005KT 10SM SCT027 16/12 A3022 RMK AO2 T01580117 PNO

Hours of Operation

8 am - 6 pm (7 days a week)
Terminal access 24/7
On call services 24/7 (fee may apply)
(361) 758-2000

Location

Skye FBO - Airport Services
McCampbell-Porter Airport KTFP
3141 FM 3512
Aransas Pass, TX 78336-9728
(361) 758-2000
2 miles N of Ingleside, TX
Only 15 min from downtown Corpus Christi 2 miles N of Ingleside, Texas and only 15 minutes from downtown Corpus Christi, Texas

(click to enlarge)

Skyview Aviation BBB Business Review

24 Hour / 365 Day Access

Call: (361) 758-2000


View Larger Map